Flight Track Log - Related Links

Times and Time Zones

All times are in EDT time to prevent confusion due to time zone crossing. See the EGF4247 flight status page for this flight to view local times or setup timezone preferences in your user account.

Time Position Orientation Groundspeed Altitude Reporting Facility
EDT Latitude Longitude Course Direction KTS MPH feet Rate Location/Type
Mon 03:45:24 PM 42.8833 -78.8333 270° West 218 251 4,500  Level Buffalo TRACON
Mon 03:45:42 PM 42.8833 -78.8667 270° West 245 282 4,900 2,231 Climbing Buffalo TRACON
Mon 03:46:42 PM 42.8833 -78.9667 270° West 271 312 7,400 2,362 Climbing Buffalo TRACON
Mon 03:47:49 PM 42.9000 -79.0667 283° West 270 311 9,900 1,937 Climbing Toronto Center
Mon 03:48:49 PM 42.9000 -79.1500 270° West 280 322 11,500 1,550 Climbing Toronto Center
Mon 03:49:49 PM 42.9167 -79.3000 279° West 310 357 13,000 1,450 Climbing Toronto Center
Mon 03:50:49 PM 42.9167 -79.4000 270° West 330 380 14,400 1,450 Climbing Toronto Center
Mon 03:51:49 PM 42.9333 -79.5500 279° West 340 391 15,900 1,450 Climbing Toronto Center
Mon 03:52:49 PM 42.9333 -79.6500 270° West 350 403 17,300 1,450 Climbing Toronto Center
Mon 03:53:49 PM 42.9500 -79.8167 278° West 350 403 18,800 1,450 Climbing Toronto Center
Mon 03:54:49 PM 42.9500 -79.9333 270° West 360 414 20,200 1,400 Climbing Toronto Center
Mon 03:55:49 PM 42.9667 -80.0667 280° West 360 414 21,600 1,450 Climbing Toronto Center
Mon 03:56:49 PM 42.9667 -80.2333 270° West 370 426 23,100 1,450 Climbing Toronto Center
Mon 03:57:49 PM 42.9833 -80.3667 280° West 370 426 24,500 1,400 Climbing Toronto Center
Mon 03:58:49 PM 43.0000 -80.5000 280° West 370 426 25,900 1,200 Climbing Toronto Center
Mon 03:59:49 PM 43.0000 -80.6333 270° West 370 426 26,900 950 Climbing Toronto Center
Mon 04:00:49 PM 43.0167 -80.7667 280° West 380 437 27,800 1,050 Climbing Toronto Center
Mon 04:01:49 PM 43.0000 -80.9333 262° West 380 437 29,000 1,100 Climbing Toronto Center
Mon 04:02:49 PM 43.0167 -81.0667 280° West 380 437 30,000 950 Climbing Toronto Center
Mon 04:03:49 PM 43.0167 -81.2000 270° West 380 437 30,900 950 Climbing Toronto Center
Mon 04:04:49 PM 43.0167 -81.3667 270° West 390 449 31,900 550 Climbing Toronto Center
Mon 04:05:49 PM 43.0167 -81.5000 270° West 400 460 32,000 50 Climbing Toronto Center
Mon 04:06:49 PM 43.0167 -81.6667 270° West 410 472 32,000  Level Toronto Center
Mon 04:07:49 PM 43.0167 -81.8167 270° West 410 472 32,000  Level Toronto Center
Mon 04:08:49 PM 43.0000 -81.9667 261° West 410 472 32,000  Level Toronto Center
Mon 04:09:49 PM 43.0000 -82.1167 270° West 410 472 32,000  Level Toronto Center
Mon 04:10:49 PM 43.0000 -82.2833 270° West 410 472 32,000  Level Toronto Center
Mon 04:11:49 PM 43.0000 -82.4333 270° West 410 472 32,000  Level Toronto Center
Mon 04:12:49 PM 43.0000 -82.6000 270° West 400 460 32,000  Level Toronto Center
Mon 04:13:49 PM 42.9833 -82.7500 261° West 400 460 32,000  Level Toronto Center
Mon 04:14:49 PM 42.9833 -82.9000 270° West 400 460 32,000  Level Toronto Center
Mon 04:15:49 PM 42.9833 -83.0333 270° West 400 460 32,000  Level Toronto Center
Mon 04:16:49 PM 42.9833 -83.1833 270° West 390 449 32,000  Level Toronto Center
Mon 04:17:49 PM 42.9667 -83.3500 262° West 390 449 32,000  Level Toronto Center
Mon 04:18:46 PM 42.9764 -83.4719 276° West 403 464 32,000  Level Cleveland Center
Mon 04:19:46 PM 42.9703 -83.6222 267° West 403 464 32,000  Level Cleveland Center
Mon 04:20:46 PM 42.9644 -83.7694 267° West 403 464 32,000  Level Cleveland Center
Mon 04:21:46 PM 42.9497 -83.9164 262° West 403 464 32,000  Level Cleveland Center
Mon 04:22:46 PM 42.9350 -84.0631 262° West 403 464 32,000  Level Cleveland Center
Mon 04:24:49 PM 42.8833 -84.3667 257° West 390 449 32,000  Level Toronto Center
Mon 04:25:49 PM 42.8833 -84.5333 270° West 400 460 32,000  Level Toronto Center
Mon 04:26:49 PM 42.8667 -84.6667 260° West 400 460 32,000  Level Toronto Center
Mon 04:27:49 PM 42.8500 -84.8167 261° West 400 460 32,000  Level Toronto Center
Mon 04:28:49 PM 42.8167 -84.9833 255° West 400 460 32,000  Level Toronto Center
Mon 04:30:00 PM 42.8275 -85.1294 276° West 396 456 32,000 -271 Level Chicago Center
Mon 04:31:02 PM 42.8111 -85.2769 261° West 395 455 31,400 -774 Descending Chicago Center
Mon 04:32:04 PM 42.7944 -85.4275 261° West 400 460 30,400 -968 Descending Chicago Center
Mon 04:33:06 PM 42.7681 -85.6075 259° West 403 464 29,400 -1,008 Descending Chicago Center
Mon 04:34:09 PM 42.7397 -85.7561 255° West 403 464 28,300 -1,104 Descending Chicago Center
Mon 04:35:11 PM 42.7133 -85.9072 257° West 407 468 27,100 -1,258 Descending Chicago Center
Mon 04:36:13 PM 42.6850 -86.0603 256° West 412 474 25,700 -1,403 Descending Chicago Center
Mon 04:37:15 PM 42.6561 -86.2169 256° West 422 486 24,200 -1,887 Descending Chicago Center
Mon 04:38:17 PM 42.6272 -86.3653 255° West 410 472 21,800 -2,419 Descending Chicago Center
Mon 04:39:19 PM 42.6017 -86.5061 256° West 386 444 19,200 -2,613 Descending Chicago Center
Mon 04:40:21 PM 42.5706 -86.6636 255° West 363 418 16,400 -2,516 Descending Chicago Center
Mon 04:41:23 PM 42.5428 -86.7967 254° West 367 422 14,000 -2,226 Descending Chicago Center
Mon 04:42:25 PM 42.5083 -86.9192 249° West 351 404 11,800 -1,887 Descending Chicago Center
Mon 04:43:27 PM 42.4764 -87.0378 250° West 339 390 10,100 -1,016 Descending Chicago Center
Mon 04:44:29 PM 42.4467 -87.1408 249° West 302 348 9,700 -532 Descending Chicago Center
Mon 04:45:31 PM 42.4222 -87.2306 250° West 262 302 9,000 -339 Descending Chicago Center
Mon 04:46:33 PM 42.3950 -87.3294 250° West 235 270 9,000  Level Chicago Center
Mon 04:47:35 PM 42.3756 -87.3953 248° West 217 250 9,000 -339 Level Chicago Center
Mon 04:48:37 PM 42.3489 -87.4892 249° West 222 255 8,300 -823 Descending Chicago Center
Mon 04:49:39 PM 42.3119 -87.5514 231° Southwest 223 257 7,300 -624 Descending Chicago Center
Mon 04:50:42 PM 42.2622 -87.6008 216° Southwest 222 255 7,000 -432 Descending Chicago Center
Mon 04:51:44 PM 42.2164 -87.6539 221° Southwest 219 252 6,400 -823 Descending Chicago Center
Mon 04:52:46 PM 42.1756 -87.6981 219° Southwest 195 224 5,300 -1,113 Descending Chicago Center
Mon 04:53:48 PM 42.1322 -87.7481 221° Southwest 178 205 4,100 -1,161 Descending Chicago Center

Login

Don't have an account? Register now (free) for customized features, flight alerts, and more!